Janet — 9HSL8 — position and weather

sailwx.info

Track history (hours):
 
Tides and Currents Weather Stations Pressure Air Temp Water Temp Dewpoint Dewpoint Depression Visibility Wind Speed Wind Dir Waves Ship Positions

Janet

Last reported at 2014-Dec-20 17:31 UTC. Time now 2014-Dec-20 17:55 UTC.
Position N 51°54' E 004°20'.

Length 90 m; draft 6.2 m.

Type: Cargo ship. MMSI: 256371000.

Date/timePositionNaut miles runAvg speedWind from/ knotsBaromVisibWave heightAir tempDewpointWater temp
2014-Dec-20 17:31N 51°54' E 004°20'0 0.0
2014-Dec-20 16:31N 51°54' E 004°20'0 0.0
2014-Dec-20 15:31N 51°54' E 004°20'0 0.0
2014-Dec-20 14:31N 51°54' E 004°20'0 0.0
2014-Dec-20 13:31N 51°54' E 004°20'0 0.0
2014-Dec-20 12:31N 51°54' E 004°20'0 0.0
2014-Dec-20 11:28N 51°54' E 004°20'0 0.0
2014-Dec-20 10:22N 51°54' E 004°20'0 0.0
2014-Dec-20 09:28N 51°54' E 004°20'0 0.0
2014-Dec-20 08:28N 51°54' E 004°20'0 0.0
2014-Dec-20 07:19N 51°54' E 004°20'0 0.0
2014-Dec-20 06:31N 51°54' E 004°20'0 0.0
2014-Dec-20 05:19N 51°54' E 004°20'0 0.0
2014-Dec-20 04:28N 51°54' E 004°20'0 0.0
2014-Dec-20 03:31N 51°54' E 004°20'0 0.0
2014-Dec-20 02:25N 51°54' E 004°20'0 0.0
2014-Dec-20 01:28N 51°54' E 004°20'0 0.0
2014-Dec-20 00:28N 51°54' E 004°20'0 0.0
2014-Dec-19 23:31N 51°54' E 004°20'0 0.0
2014-Dec-19 22:31N 51°54' E 004°20'0 0.0
2014-Dec-19 21:31N 51°54' E 004°20'0 0.0
2014-Dec-19 20:25N 51°54' E 004°20'0 0.0
2014-Dec-19 19:31N 51°54' E 004°20'0 0.0
2014-Dec-19 18:22N 51°54' E 004°20'0 0.0
2014-Dec-19 17:28N 51°54' E 004°20'0 0.0
2014-Dec-19 16:28N 51°54' E 004°20'0 0.0
2014-Dec-19 15:31N 51°54' E 004°20'0 0.0
2014-Dec-19 14:28N 51°54' E 004°20'0 0.0
2014-Dec-19 13:28N 51°54' E 004°20'0 0.0
2014-Dec-19 12:19N 51°54' E 004°20'0 0.0
2014-Dec-19 11:22N 51°54' E 004°20'0 0.0
2014-Dec-19 10:28N 51°54' E 004°20'0 0.0
2014-Dec-19 09:31N 51°54' E 004°20'0 0.0
2014-Dec-19 08:31N 51°54' E 004°20'0 0.0
2014-Dec-19 07:22N 51°54' E 004°20'0 0.0
2014-Dec-19 06:31N 51°54' E 004°20'0 0.0
2014-Dec-19 05:28N 51°54' E 004°20'0 0.0
2014-Dec-19 04:31N 51°54' E 004°20'0 0.0
2014-Dec-19 03:31N 51°54' E 004°20'0 0.0
2014-Dec-19 02:22N 51°54' E 004°20'0 0.0
2014-Dec-19 01:31N 51°54' E 004°20'0 0.0
2014-Dec-19 00:31N 51°54' E 004°20'0 0.0
2014-Dec-18 23:28N 51°54' E 004°20'0 0.0
2014-Dec-18 22:31N 51°54' E 004°20'0 0.0
2014-Dec-18 21:28N 51°54' E 004°20'0 0.0
2014-Dec-18 20:28N 51°54' E 004°20'0 0.0
2014-Dec-18 19:31N 51°54' E 004°20'0 0.0
2014-Dec-18 18:25N 51°54' E 004°20'0 0.0
2014-Dec-18 17:25N 51°54' E 004°20'0 0.0
2014-Dec-18 16:28N 51°54' E 004°20'0 0.0
2014-Dec-18 15:31N 51°54' E 004°20'0 0.0
2014-Dec-18 14:22N 51°54' E 004°20'0 0.0
2014-Dec-18 13:31N 51°54' E 004°20'0 0.0
2014-Dec-18 12:28N 51°54' E 004°20'0 0.0
2014-Dec-18 11:31N 51°54' E 004°20'0 0.0
2014-Dec-18 10:31N 51°54' E 004°20'0 0.0
2014-Dec-18 09:25N 51°54' E 004°20'0 0.0
2014-Dec-18 08:28N 51°54' E 004°20'0 0.0
2014-Dec-18 07:31N 51°54' E 004°20'0 0.0
2014-Dec-18 06:31N 51°54' E 004°20'0 0.0
2014-Dec-18 05:25N 51°54' E 004°20'0 0.0
2014-Dec-18 04:31N 51°54' E 004°20'0 0.0
2014-Dec-18 03:33N 51°54' E 004°20'7 6.6
2014-Dec-18 02:33N 51°57' E 004°10'8 8.3
2014-Dec-18 01:33N 51°60' E 003°58'5110.2
2014-Dec-17 20:30N 51°45' E 002°38'2010.3
2014-Dec-17 18:33N 51°30' E 002°17'9 9.4
2014-Dec-17 17:33N 51°22' E 002°09'8 8.1
2014-Dec-17 16:33N 51°15' E 002°04'8 8.0
2014-Dec-17 15:34N 51°10' E 001°53'8 7.8
2014-Dec-17 14:33N 51°06' E 001°42'8 8.5
2014-Dec-17 13:33N 51°00' E 001°32'  
2014-Dec-12 18:15N 38°47' W 009°50'7 9.3
2014-Dec-12 17:27N 38°40' W 009°50'8 9.4
2014-Dec-12 16:33N 38°32' W 009°47'12 9.2
2014-Dec-12 15:16N 38°20' W 009°44'10 9.3
2014-Dec-12 14:09N 38°10' W 009°41'26 9.3
2014-Dec-12 11:22N 37°45' W 009°34'224 8.9
2014-Dec-11 10:10N 35°59' W 005°26'6 9.9
2014-Dec-11 09:33N 36°00' W 005°19'  
Track history (hours):
 
Tides and Currents Weather Stations Pressure Air Temp Water Temp Dewpoint Dewpoint Depression Visibility Wind Speed Wind Dir Waves Ship Positions

Janet

Last reported at 2014-Dec-20 17:31 UTC. Time now 2014-Dec-20 17:55 UTC.
Position N 51°54' E 004°20'.

Length 90 m; draft 6.2 m.

Type: Cargo ship. MMSI: 256371000.

Date/timePositionNaut miles runAvg speedWind from/ knotsBaromVisibWave heightAir tempDewpointWater temp
2014-Dec-20 17:31N 51°54' E 004°20'0 0.0
2014-Dec-20 16:31N 51°54' E 004°20'0 0.0
2014-Dec-20 15:31N 51°54' E 004°20'0 0.0
2014-Dec-20 14:31N 51°54' E 004°20'0 0.0
2014-Dec-20 13:31N 51°54' E 004°20'0 0.0
2014-Dec-20 12:31N 51°54' E 004°20'0 0.0
2014-Dec-20 11:28N 51°54' E 004°20'0 0.0
2014-Dec-20 10:22N 51°54' E 004°20'0 0.0
2014-Dec-20 09:28N 51°54' E 004°20'0 0.0
2014-Dec-20 08:28N 51°54' E 004°20'0 0.0
2014-Dec-20 07:19N 51°54' E 004°20'0 0.0
2014-Dec-20 06:31N 51°54' E 004°20'0 0.0
2014-Dec-20 05:19N 51°54' E 004°20'0 0.0
2014-Dec-20 04:28N 51°54' E 004°20'0 0.0
2014-Dec-20 03:31N 51°54' E 004°20'0 0.0
2014-Dec-20 02:25N 51°54' E 004°20'0 0.0
2014-Dec-20 01:28N 51°54' E 004°20'0 0.0
2014-Dec-20 00:28N 51°54' E 004°20'0 0.0
2014-Dec-19 23:31N 51°54' E 004°20'0 0.0
2014-Dec-19 22:31N 51°54' E 004°20'0 0.0
2014-Dec-19 21:31N 51°54' E 004°20'0 0.0
2014-Dec-19 20:25N 51°54' E 004°20'0 0.0
2014-Dec-19 19:31N 51°54' E 004°20'0 0.0
2014-Dec-19 18:22N 51°54' E 004°20'0 0.0
2014-Dec-19 17:28N 51°54' E 004°20'0 0.0
2014-Dec-19 16:28N 51°54' E 004°20'0 0.0
2014-Dec-19 15:31N 51°54' E 004°20'0 0.0
2014-Dec-19 14:28N 51°54' E 004°20'0 0.0
2014-Dec-19 13:28N 51°54' E 004°20'0 0.0
2014-Dec-19 12:19N 51°54' E 004°20'0 0.0
2014-Dec-19 11:22N 51°54' E 004°20'0 0.0
2014-Dec-19 10:28N 51°54' E 004°20'0 0.0
2014-Dec-19 09:31N 51°54' E 004°20'0 0.0
2014-Dec-19 08:31N 51°54' E 004°20'0 0.0
2014-Dec-19 07:22N 51°54' E 004°20'0 0.0
2014-Dec-19 06:31N 51°54' E 004°20'0 0.0
2014-Dec-19 05:28N 51°54' E 004°20'0 0.0
2014-Dec-19 04:31N 51°54' E 004°20'0 0.0
2014-Dec-19 03:31N 51°54' E 004°20'0 0.0
2014-Dec-19 02:22N 51°54' E 004°20'0 0.0
2014-Dec-19 01:31N 51°54' E 004°20'0 0.0
2014-Dec-19 00:31N 51°54' E 004°20'0 0.0
2014-Dec-18 23:28N 51°54' E 004°20'0 0.0
2014-Dec-18 22:31N 51°54' E 004°20'0 0.0
2014-Dec-18 21:28N 51°54' E 004°20'0 0.0
2014-Dec-18 20:28N 51°54' E 004°20'0 0.0
2014-Dec-18 19:31N 51°54' E 004°20'0 0.0
2014-Dec-18 18:25N 51°54' E 004°20'0 0.0
2014-Dec-18 17:25N 51°54' E 004°20'0 0.0
2014-Dec-18 16:28N 51°54' E 004°20'0 0.0
2014-Dec-18 15:31N 51°54' E 004°20'0 0.0
2014-Dec-18 14:22N 51°54' E 004°20'0 0.0
2014-Dec-18 13:31N 51°54' E 004°20'0 0.0
2014-Dec-18 12:28N 51°54' E 004°20'0 0.0
2014-Dec-18 11:31N 51°54' E 004°20'0 0.0
2014-Dec-18 10:31N 51°54' E 004°20'0 0.0
2014-Dec-18 09:25N 51°54' E 004°20'0 0.0
2014-Dec-18 08:28N 51°54' E 004°20'0 0.0
2014-Dec-18 07:31N 51°54' E 004°20'0 0.0
2014-Dec-18 06:31N 51°54' E 004°20'0 0.0
2014-Dec-18 05:25N 51°54' E 004°20'0 0.0
2014-Dec-18 04:31N 51°54' E 004°20'0 0.0
2014-Dec-18 03:33N 51°54' E 004°20'7 6.6
2014-Dec-18 02:33N 51°57' E 004°10'8 8.3
2014-Dec-18 01:33N 51°60' E 003°58'5110.2
2014-Dec-17 20:30N 51°45' E 002°38'2010.3
2014-Dec-17 18:33N 51°30' E 002°17'9 9.4
2014-Dec-17 17:33N 51°22' E 002°09'8 8.1
2014-Dec-17 16:33N 51°15' E 002°04'8 8.0
2014-Dec-17 15:34N 51°10' E 001°53'8 7.8
2014-Dec-17 14:33N 51°06' E 001°42'8 8.5
2014-Dec-17 13:33N 51°00' E 001°32'  
2014-Dec-12 18:15N 38°47' W 009°50'7 9.3
2014-Dec-12 17:27N 38°40' W 009°50'8 9.4
2014-Dec-12 16:33N 38°32' W 009°47'12 9.2
2014-Dec-12 15:16N 38°20' W 009°44'10 9.3
2014-Dec-12 14:09N 38°10' W 009°41'26 9.3
2014-Dec-12 11:22N 37°45' W 009°34'224 8.9
2014-Dec-11 10:10N 35°59' W 005°26'6 9.9
2014-Dec-11 09:33N 36°00' W 005°19'  

Dump ship's entire track history